Batesland, South Dakota
Current Conditions -  °F | °C
As of 7:52 PM on Saturday 22 Nov 2014 (Local Time) from KIEN Reporting Station
Scattered Clouds Scattered Clouds  
Wind Chill: 36°   Ceiling: Unl
Heat Index: 39°   Visibility: 10mi
Dew Point: 31°   Wind: 5mph
Humidity: 73%   Direction: 230°SW
Pressure: 29.46"   Gusts: NA
Location:  43.13°N, 102.1°W
Report Text: KIEN 230252Z AUTO 23004KT 10SM SCT085 04/M01 A2946 RMK AO2 SLP983 T00391006 58003
Loading
Personal Weather Stations






























Interactive Weather Map New forecast layout! Learn more

10-Day Weather Forecast

Advertisements
Track Severe Weather on mobile